Terminal Aerodrome Forecast
Issued by NWS Mt. Holly, NJ

Home | Current Version | Previous Version | Text Only | Print | Product List | Glossary On
Versions: 1 2 3 4 5 6 7 8 9 10 11 12 13 14
000
FTUS41 KPHI 221100
TAFILG
TAF
KILG 221127Z 2212/2312 36004KT P6SM OVC150
     FM221600 08005KT P6SM SCT025 OVC060
      TEMPO 2217/2220 6SM -RA
     FM222000 09004KT 5SM -RA BKN020 OVC050
     FM230100 07004KT 3SM -RA BR BKN007 OVC015
     FM230500 05006KT 2SM -RADZ BR OVC004=

USA.gov is the U.S. government's official web portal to all federal, state and local government web resources and services.